Time;durP1;ratioP1;P1;durP2;ratioP2;P2;SDS_P1;SDS_P2;PMS_P1;PMS_P2;Temp;Humidity;BMP_temperature;BMP_pressure;BME280_temperature;BME280_humidity;BME280_pressure;Samples;Min_cycle;Max_cycle;Signal;HPM_P1;HPM_P2
2021/01/09 00:00:26;;;;;;;40.40;19.88;;;0.30;99.90;;;;;;5046423;28;20135;-74
2021/01/09 00:02:53;;;;;;;39.30;21.65;;;0.40;99.90;;;;;;5023670;28;20120;-74
2021/01/09 00:05:19;;;;;;;38.17;21.13;;;0.40;99.90;;;;;;5060301;28;20052;-74
2021/01/09 00:07:46;;;;;;;37.80;20.50;;;0.40;99.90;;;;;;5063146;28;20055;-74
2021/01/09 00:10:12;;;;;;;42.97;22.30;;;0.40;99.90;;;;;;5029711;28;20156;-74
2021/01/09 00:12:39;;;;;;;42.00;21.10;;;0.50;99.90;;;;;;5063892;28;20064;-75
2021/01/09 00:15:07;;;;;;;43.40;22.42;;;0.60;99.90;;;;;;5064559;28;20068;-75
2021/01/09 00:17:34;;;;;;;43.20;21.52;;;0.50;99.90;;;;;;5063307;28;20501;-76
2021/01/09 00:20:09;;;;;;;46.40;23.90;;;0.60;99.90;;;;;;5063353;28;20079;-75
2021/01/09 00:22:35;;;;;;;49.33;23.73;;;0.60;99.90;;;;;;5063380;28;20052;-77
2021/01/09 00:25:05;;;;;;;40.17;21.88;;;0.50;99.90;;;;;;5064642;28;20135;-74
2021/01/09 00:27:31;;;;;;;48.65;25.45;;;0.60;99.90;;;;;;5045659;28;20059;-74
2021/01/09 00:29:58;;;;;;;50.53;24.65;;;0.60;99.90;;;;;;5067314;28;20695;-74
2021/01/09 00:32:24;;;;;;;48.35;23.13;;;0.50;99.90;;;;;;5067637;28;20131;-75
2021/01/09 00:34:51;;;;;;;45.63;23.05;;;0.60;99.90;;;;;;5050499;28;20064;-75
2021/01/09 00:37:17;;;;;;;62.75;24.85;;;0.50;99.90;;;;;;5066499;28;20067;-75
2021/01/09 00:39:47;;;;;;;44.42;21.63;;;0.60;99.90;;;;;;5068523;28;20063;-76
2021/01/09 00:42:13;;;;;;;47.88;22.90;;;0.60;99.90;;;;;;5068137;28;20056;-75
2021/01/09 00:44:39;;;;;;;51.65;23.65;;;0.50;99.90;;;;;;5067124;28;20071;-74
2021/01/09 00:47:06;;;;;;;54.53;23.88;;;0.50;99.90;;;;;;5067310;28;20053;-76
2021/01/09 00:49:32;;;;;;;44.15;23.25;;;0.50;99.90;;;;;;5067034;28;20362;-74
2021/01/09 00:51:59;;;;;;;49.17;23.48;;;0.50;99.90;;;;;;5065397;28;20060;-75
2021/01/09 00:54:25;;;;;;;47.50;22.70;;;0.50;99.90;;;;;;5034011;28;20058;-75
2021/01/09 00:56:52;;;;;;;48.92;22.75;;;0.50;99.90;;;;;;5049177;28;20572;-74
2021/01/09 00:59:19;;;;;;;45.72;21.58;;;0.50;99.90;;;;;;5066630;28;20429;-75
2021/01/09 01:01:51;;;;;;;39.92;20.25;;;0.50;99.90;;;;;;5050349;28;20087;-74
2021/01/09 01:04:19;;;;;;;38.45;19.15;;;0.50;99.90;;;;;;5067416;28;20056;-75
2021/01/09 01:06:47;;;;;;;37.40;20.70;;;0.40;99.90;;;;;;5065668;28;20053;-75
2021/01/09 01:09:13;;;;;;;28.83;18.08;;;0.40;99.90;;;;;;5068122;28;20052;-75
2021/01/09 01:11:40;;;;;;;39.80;18.13;;;0.40;99.90;;;;;;5066623;28;20051;-74
2021/01/09 01:14:07;;;;;;;28.65;16.25;;;0.30;99.90;;;;;;5066229;28;20135;-75
2021/01/09 01:16:34;;;;;;;27.88;16.05;;;0.30;99.90;;;;;;5048715;28;20044;-74
2021/01/09 01:19:00;;;;;;;22.67;14.88;;;0.20;99.90;;;;;;5067852;28;20510;-74
2021/01/09 01:21:27;;;;;;;28.83;16.92;;;0.20;99.90;;;;;;5045728;28;20239;-74
2021/01/09 01:23:53;;;;;;;27.70;16.50;;;0.20;99.90;;;;;;5013575;28;20055;-76
2021/01/09 01:26:19;;;;;;;24.95;15.68;;;0.30;99.90;;;;;;5027754;28;20579;-75
2021/01/09 01:28:45;;;;;;;26.45;16.67;;;0.40;99.90;;;;;;5065663;28;20237;-74
2021/01/09 01:31:12;;;;;;;32.30;17.27;;;0.40;99.90;;;;;;5013445;28;20543;-76
2021/01/09 01:33:41;;;;;;;30.67;17.60;;;0.40;99.90;;;;;;5066973;28;20084;-75
2021/01/09 01:36:09;;;;;;;27.50;16.25;;;0.30;99.90;;;;;;5048287;28;20045;-74
2021/01/09 01:38:36;;;;;;;25.48;17.73;;;0.40;99.90;;;;;;5048560;28;20045;-75
2021/01/09 01:41:07;;;;;;;28.73;16.92;;;0.30;99.90;;;;;;5066846;28;20052;-75
2021/01/09 01:43:34;;;;;;;22.15;16.40;;;0.30;99.90;;;;;;5032852;28;20505;-75
2021/01/09 01:46:02;;;;;;;26.55;17.10;;;0.20;99.90;;;;;;5048392;28;20048;-74
2021/01/09 01:48:30;;;;;;;24.25;16.33;;;0.20;99.90;;;;;;5066057;28;20044;-75
2021/01/09 01:50:56;;;;;;;23.25;17.45;;;0.20;99.90;;;;;;5063804;28;20045;-75
2021/01/09 01:53:23;;;;;;;23.63;18.33;;;0.20;99.90;;;;;;5048677;28;20428;-74
2021/01/09 01:55:50;;;;;;;27.77;18.52;;;0.20;99.90;;;;;;5066582;28;20135;-75
2021/01/09 01:58:17;;;;;;;21.73;16.38;;;0.20;99.90;;;;;;5048020;28;20052;-75
2021/01/09 02:00:46;;;;;;;28.38;17.42;;;0.20;99.90;;;;;;5061030;28;20080;-75
2021/01/09 02:03:15;;;;;;;25.23;15.93;;;0.20;99.90;;;;;;5033327;28;20048;-75
2021/01/09 02:05:48;;;;;;;26.08;17.83;;;0.20;99.90;;;;;;5064646;28;20046;-75
2021/01/09 02:08:16;;;;;;;27.20;19.33;;;0.20;99.90;;;;;;5047142;28;20056;-77
2021/01/09 02:10:49;;;;;;;33.83;21.55;;;0.20;99.90;;;;;;5064354;28;20088;-75
2021/01/09 02:13:31;;;;;;;40.15;21.48;;;0.30;99.90;;;;;;5043898;28;20060;-75
2021/01/09 02:15:58;;;;;;;34.60;20.08;;;0.30;99.90;;;;;;5042310;28;20041;-75
2021/01/09 02:18:25;;;;;;;37.58;23.48;;;0.40;99.90;;;;;;5051156;28;20052;-75
2021/01/09 02:21:00;;;;;;;33.25;20.75;;;0.40;99.90;;;;;;5047067;28;20037;-77
2021/01/09 02:23:27;;;;;;;28.05;18.80;;;0.30;99.90;;;;;;5048752;28;20048;-75
2021/01/09 02:25:53;;;;;;;31.75;21.17;;;0.30;99.90;;;;;;5047368;28;20127;-76
2021/01/09 02:28:19;;;;;;;29.23;18.70;;;0.20;99.90;;;;;;5046913;28;20052;-75
2021/01/09 02:30:48;;;;;;;33.30;20.95;;;0.30;99.90;;;;;;5063724;28;20064;-76
2021/01/09 02:33:17;;;;;;;30.10;19.73;;;0.30;99.90;;;;;;5048411;28;20053;-74
2021/01/09 02:35:45;;;;;;;34.03;20.67;;;0.30;99.90;;;;;;5064384;28;20041;-74
2021/01/09 02:38:12;;;;;;;33.20;20.63;;;0.30;99.90;;;;;;5048503;28;20050;-75
2021/01/09 02:40:41;;;;;;;41.40;21.42;;;0.40;99.90;;;;;;5046946;28;20037;-74
2021/01/09 02:43:10;;;;;;;37.58;20.75;;;0.40;99.90;;;;;;5048196;28;20143;-75
2021/01/09 02:45:36;;;;;;;39.35;23.35;;;0.40;99.90;;;;;;5047187;28;20155;-74
2021/01/09 02:48:03;;;;;;;35.28;21.52;;;0.30;99.90;;;;;;5066305;28;20126;-75
2021/01/09 02:50:30;;;;;;;34.53;20.88;;;0.30;99.90;;;;;;5062606;28;21145;-73
2021/01/09 02:52:56;;;;;;;36.53;20.10;;;0.30;99.90;;;;;;5064202;28;20127;-74
2021/01/09 02:55:23;;;;;;;34.13;20.15;;;0.30;99.90;;;;;;5047758;28;20075;-75
2021/01/09 02:57:49;;;;;;;32.20;20.55;;;0.30;99.90;;;;;;5047562;28;20051;-74
2021/01/09 03:00:16;;;;;;;32.53;19.65;;;0.30;99.90;;;;;;5064068;28;20059;-72
2021/01/09 03:02:42;;;;;;;32.15;19.30;;;0.30;99.90;;;;;;5065897;28;20060;-74
2021/01/09 03:05:09;;;;;;;27.85;18.40;;;0.20;99.90;;;;;;5065073;28;20052;-73
2021/01/09 03:07:35;;;;;;;25.98;18.88;;;0.10;99.90;;;;;;5063744;28;20415;-74
2021/01/09 03:10:03;;;;;;;29.42;18.38;;;0.10;99.90;;;;;;5065718;28;20528;-74
2021/01/09 03:12:29;;;;;;;25.83;18.05;;;0.10;99.90;;;;;;5046156;28;20037;-74
2021/01/09 03:14:55;;;;;;;25.27;17.38;;;0.00;99.90;;;;;;5065653;28;20054;-74
2021/01/09 03:17:23;;;;;;;27.90;17.88;;;0.00;99.90;;;;;;5030645;28;20045;-75
2021/01/09 03:19:49;;;;;;;28.95;18.88;;;0.00;99.90;;;;;;5046822;28;20074;-74
2021/01/09 03:22:15;;;;;;;26.67;19.38;;;0.10;99.90;;;;;;5064884;28;20147;-75
2021/01/09 03:24:42;;;;;;;33.65;18.95;;;0.10;99.90;;;;;;5030096;28;20424;-74
2021/01/09 03:27:08;;;;;;;27.48;18.55;;;0.00;99.90;;;;;;5044296;28;20041;-73
2021/01/09 03:29:34;;;;;;;25.20;17.73;;;0.00;99.90;;;;;;5062693;28;20436;-75
2021/01/09 03:32:01;;;;;;;29.42;19.13;;;0.00;99.90;;;;;;5053012;28;20068;-75
2021/01/09 03:34:28;;;;;;;27.42;17.88;;;0.10;99.90;;;;;;5063774;28;20041;-75
2021/01/09 03:36:54;;;;;;;25.63;17.27;;;0.10;99.90;;;;;;5047081;28;20133;-76
2021/01/09 03:39:20;;;;;;;29.08;18.23;;;0.20;99.90;;;;;;5063904;28;20058;-76
2021/01/09 03:41:47;;;;;;;27.63;18.30;;;0.10;99.90;;;;;;5063818;28;20056;-75
2021/01/09 03:44:13;;;;;;;27.90;18.08;;;0.20;99.90;;;;;;5065449;28;20045;-74
2021/01/09 03:46:39;;;;;;;32.40;18.98;;;0.20;99.90;;;;;;5047246;28;20040;-74
2021/01/09 03:49:06;;;;;;;25.90;18.23;;;0.20;99.90;;;;;;5065062;28;20523;-75
2021/01/09 03:51:32;;;;;;;24.45;17.73;;;0.20;99.90;;;;;;5045882;28;20045;-74
2021/01/09 03:53:58;;;;;;;26.77;19.25;;;0.20;99.90;;;;;;5047386;28;20066;-73
2021/01/09 03:56:24;;;;;;;30.08;19.58;;;0.10;99.90;;;;;;5063812;28;20037;-74
2021/01/09 03:58:51;;;;;;;25.60;18.05;;;0.20;99.90;;;;;;5063499;28;20049;-74
2021/01/09 04:01:17;;;;;;;26.73;18.80;;;0.20;99.90;;;;;;5046826;28;20048;-74
2021/01/09 04:03:43;;;;;;;24.88;18.60;;;0.20;99.90;;;;;;5069251;28;20052;-73
2021/01/09 04:06:09;;;;;;;24.67;19.00;;;0.10;99.90;;;;;;5049696;28;20421;-73
2021/01/09 04:08:36;;;;;;;24.95;18.70;;;0.10;99.90;;;;;;5067864;28;20048;-74
2021/01/09 04:11:02;;;;;;;26.77;18.40;;;0.10;99.90;;;;;;5050607;28;20123;-73
2021/01/09 04:13:28;;;;;;;24.40;19.60;;;0.00;99.90;;;;;;5069156;28;20119;-73
2021/01/09 04:15:55;;;;;;;23.58;18.20;;;0.00;99.90;;;;;;5033366;28;20227;-73
2021/01/09 04:18:21;;;;;;;27.05;20.80;;;-0.10;99.90;;;;;;5050324;28;20052;-73
2021/01/09 04:20:47;;;;;;;25.67;19.90;;;-0.10;99.90;;;;;;5067028;28;20474;-74
2021/01/09 04:23:13;;;;;;;27.48;20.98;;;-0.10;99.90;;;;;;5068700;28;20137;-73
2021/01/09 04:25:40;;;;;;;28.00;20.13;;;-0.10;99.90;;;;;;5050323;28;20041;-73
2021/01/09 04:28:06;;;;;;;27.63;21.15;;;-0.10;99.90;;;;;;5066874;28;20044;-73
2021/01/09 04:30:32;;;;;;;32.92;21.77;;;-0.10;99.90;;;;;;5033356;28;20045;-73
2021/01/09 04:32:59;;;;;;;29.38;20.55;;;-0.10;99.90;;;;;;5046811;28;20044;-73
2021/01/09 04:35:25;;;;;;;26.38;19.85;;;-0.10;99.90;;;;;;5013095;28;20124;-73
2021/01/09 04:37:51;;;;;;;30.63;20.55;;;-0.20;99.90;;;;;;5047249;28;20474;-72
2021/01/09 04:40:18;;;;;;;27.08;19.17;;;-0.20;99.90;;;;;;5046541;28;20057;-73
2021/01/09 04:42:45;;;;;;;25.38;20.55;;;-0.20;99.90;;;;;;5061821;28;20057;-74
2021/01/09 04:45:13;;;;;;;26.70;21.23;;;-0.30;99.90;;;;;;5058500;28;20048;-72
2021/01/09 04:47:40;;;;;;;23.05;18.50;;;-0.30;99.90;;;;;;5042713;28;20064;-73
2021/01/09 04:50:07;;;;;;;27.63;21.10;;;-0.30;99.90;;;;;;5049636;28;20070;-73
2021/01/09 04:52:36;;;;;;;25.20;20.35;;;-0.30;99.90;;;;;;5049803;28;20048;-73
2021/01/09 04:55:02;;;;;;;26.30;19.85;;;-0.20;99.90;;;;;;5050233;28;20480;-73
2021/01/09 04:57:32;;;;;;;26.52;20.38;;;-0.30;99.90;;;;;;5049436;28;20272;-75
2021/01/09 04:59:58;;;;;;;29.23;22.02;;;-0.30;99.90;;;;;;5045882;28;20626;-73
2021/01/09 05:02:27;;;;;;;27.88;20.55;;;-0.20;99.90;;;;;;5058204;28;20159;-74
2021/01/09 05:04:53;;;;;;;29.88;20.17;;;-0.20;99.90;;;;;;5066387;28;20151;-73
2021/01/09 05:07:20;;;;;;;29.52;20.08;;;-0.20;99.90;;;;;;5066613;28;20049;-73
2021/01/09 05:09:46;;;;;;;26.05;20.85;;;-0.20;99.90;;;;;;5054284;28;20048;-74
2021/01/09 05:12:16;;;;;;;30.90;20.70;;;-0.10;99.90;;;;;;5029891;28;20072;-73
2021/01/09 05:14:42;;;;;;;30.92;22.58;;;0.00;99.90;;;;;;5049224;28;20390;-73
2021/01/09 05:17:08;;;;;;;29.65;21.50;;;0.10;99.90;;;;;;5040053;28;20048;-73
2021/01/09 05:19:36;;;;;;;26.85;22.02;;;0.10;99.90;;;;;;5061263;28;20036;-74
2021/01/09 05:22:03;;;;;;;31.00;23.25;;;0.20;99.90;;;;;;5064892;28;20213;-73
2021/01/09 05:24:34;;;;;;;28.90;23.00;;;0.30;99.90;;;;;;5048946;28;20062;-74
2021/01/09 05:27:01;;;;;;;29.92;22.85;;;0.20;99.90;;;;;;5064768;28;20497;-74
2021/01/09 05:29:27;;;;;;;30.15;23.48;;;0.10;99.90;;;;;;5065348;28;20390;-74
2021/01/09 05:31:54;;;;;;;28.10;21.25;;;0.10;99.90;;;;;;5049201;28;20135;-73
2021/01/09 05:34:20;;;;;;;32.90;22.67;;;-0.10;99.90;;;;;;5067508;28;20501;-73
2021/01/09 05:36:47;;;;;;;32.55;23.35;;;-0.10;99.90;;;;;;5065111;28;20127;-74
2021/01/09 05:39:14;;;;;;;29.83;21.63;;;0.00;99.90;;;;;;5049543;28;20056;-75
2021/01/09 05:41:42;;;;;;;29.20;20.92;;;0.00;99.90;;;;;;5066785;28;20067;-75
2021/01/09 05:44:10;;;;;;;28.55;21.05;;;0.10;99.90;;;;;;5063869;28;20518;-74
2021/01/09 05:46:39;;;;;;;29.15;20.85;;;0.10;99.90;;;;;;5056000;28;20132;-75
2021/01/09 05:49:07;;;;;;;27.13;21.00;;;0.10;99.90;;;;;;5041548;28;20528;-74
2021/01/09 05:51:38;;;;;;;33.05;22.48;;;0.10;99.90;;;;;;5064824;28;20051;-74
2021/01/09 05:54:05;;;;;;;28.77;20.10;;;0.00;99.90;;;;;;5048672;28;20059;-74
2021/01/09 05:56:38;;;;;;;27.55;21.27;;;0.00;99.90;;;;;;5048483;28;20474;-75
2021/01/09 05:59:04;;;;;;;27.17;20.73;;;0.00;99.90;;;;;;5047199;28;20568;-74
2021/01/09 06:01:34;;;;;;;30.10;21.75;;;0.10;99.90;;;;;;5065278;28;20067;-75
2021/01/09 06:04:16;;;;;;;24.92;20.83;;;0.10;99.90;;;;;;5065693;28;20056;-74
2021/01/09 06:07:08;;;;;;;27.88;22.13;;;0.10;99.90;;;;;;5065392;28;20131;-74
2021/01/09 06:09:39;;;;;;;31.65;22.08;;;0.10;99.90;;;;;;5056330;28;20095;-73
2021/01/09 06:12:07;;;;;;;27.58;21.15;;;0.10;99.90;;;;;;5048444;28;20048;-74
2021/01/09 06:14:35;;;;;;;25.25;21.33;;;0.20;99.90;;;;;;5048060;28;20062;-76
2021/01/09 06:17:03;;;;;;;24.95;19.13;;;0.20;99.90;;;;;;5066471;28;20060;-75
2021/01/09 06:19:31;;;;;;;28.77;20.35;;;0.20;99.90;;;;;;5065792;28;20048;-75
2021/01/09 06:22:00;;;;;;;27.48;20.67;;;0.10;99.90;;;;;;5048095;28;20638;-75
2021/01/09 06:24:27;;;;;;;28.38;20.50;;;0.10;99.90;;;;;;5066335;28;20044;-75
2021/01/09 06:26:59;;;;;;;27.27;19.52;;;0.00;99.90;;;;;;5062184;28;20049;-75
2021/01/09 06:29:27;;;;;;;26.50;20.70;;;0.10;99.90;;;;;;5047444;28;20053;-74
2021/01/09 06:31:54;;;;;;;29.85;21.20;;;0.10;99.90;;;;;;5048226;28;20056;-75
2021/01/09 06:34:26;;;;;;;31.02;22.35;;;0.00;99.90;;;;;;5066130;28;20285;-74
2021/01/09 06:37:00;;;;;;;25.40;19.63;;;0.10;99.90;;;;;;5065402;28;20087;-74
2021/01/09 06:39:30;;;;;;;30.13;22.92;;;0.10;99.90;;;;;;5066699;28;20056;-73
2021/01/09 06:41:59;;;;;;;28.42;20.55;;;0.10;99.90;;;;;;5064216;28;20064;-74
2021/01/09 06:44:27;;;;;;;27.23;20.23;;;0.00;99.90;;;;;;5064669;28;20104;-74
2021/01/09 06:46:54;;;;;;;31.38;22.65;;;0.00;99.90;;;;;;5018537;28;20045;-74
2021/01/09 06:49:28;;;;;;;33.75;21.88;;;0.10;99.90;;;;;;5046899;28;20098;-74
2021/01/09 06:52:01;;;;;;;31.52;19.92;;;0.20;99.90;;;;;;5068406;28;20044;-74
2021/01/09 06:54:29;;;;;;;28.05;22.17;;;0.20;99.90;;;;;;5064433;28;20314;-74
2021/01/09 06:57:09;;;;;;;34.97;24.67;;;0.10;99.90;;;;;;5029604;28;20050;-73
2021/01/09 06:59:37;;;;;;;27.05;21.92;;;0.20;99.90;;;;;;5047262;28;20742;-75
2021/01/09 07:02:29;;;;;;;31.67;22.23;;;0.10;99.90;;;;;;5047350;28;20067;-74
2021/01/09 07:05:00;;;;;;;28.48;20.98;;;0.30;99.90;;;;;;5047606;28;20056;-75
2021/01/09 07:07:39;;;;;;;29.33;23.77;;;0.30;99.90;;;;;;5042375;28;20114;-76
2021/01/09 07:10:07;;;;;;;33.13;23.45;;;0.30;99.90;;;;;;5043875;28;20144;-74
2021/01/09 07:12:34;;;;;;;31.67;23.48;;;0.30;99.90;;;;;;5046505;28;20143;-74
2021/01/09 07:15:08;;;;;;;29.27;21.50;;;0.20;99.90;;;;;;5065283;28;20497;-74
2021/01/09 07:17:38;;;;;;;28.00;21.02;;;0.30;99.90;;;;;;5059477;28;20083;-75
2021/01/09 07:20:11;;;;;;;32.90;21.58;;;0.30;99.90;;;;;;5067419;28;20080;-74
2021/01/09 07:22:45;;;;;;;29.13;21.67;;;0.20;99.90;;;;;;5084584;28;20139;-75
2021/01/09 07:25:11;;;;;;;32.85;21.98;;;0.20;99.90;;;;;;5081537;28;20588;-75
2021/01/09 07:27:46;;;;;;;26.73;20.27;;;0.20;99.90;;;;;;5070525;28;20048;-75
2021/01/09 07:30:16;;;;;;;31.98;22.02;;;0.20;99.90;;;;;;5046487;28;20078;-74
2021/01/09 07:32:54;;;;;;;32.90;21.63;;;0.20;99.90;;;;;;5032417;28;20433;-74
2021/01/09 07:35:27;;;;;;;30.00;19.95;;;0.10;99.90;;;;;;5032158;28;20131;-74
2021/01/09 07:37:59;;;;;;;27.67;19.83;;;0.10;99.90;;;;;;5045756;28;20612;-75
2021/01/09 07:40:32;;;;;;;27.60;19.63;;;0.10;99.90;;;;;;5063480;28;20128;-75
2021/01/09 07:42:59;;;;;;;31.52;20.52;;;0.10;99.90;;;;;;5059306;28;20056;-74
2021/01/09 07:45:33;;;;;;;27.40;19.02;;;0.10;99.90;;;;;;5043702;28;20398;-75
2021/01/09 07:48:00;;;;;;;30.03;19.70;;;0.10;99.90;;;;;;5045571;28;20052;-73
2021/01/09 07:50:42;;;;;;;29.73;21.00;;;0.10;99.90;;;;;;5047171;28;20343;-73
2021/01/09 07:53:08;;;;;;;29.88;20.73;;;0.20;99.90;;;;;;5064788;28;20060;-75
2021/01/09 07:55:45;;;;;;;31.23;19.60;;;0.20;99.90;;;;;;5046892;28;20051;-75
2021/01/09 07:58:12;;;;;;;30.60;21.65;;;0.30;99.90;;;;;;5070855;28;20055;-73
2021/01/09 08:00:42;;;;;;;31.25;22.10;;;0.40;99.90;;;;;;5067819;28;20047;-74
2021/01/09 08:03:09;;;;;;;32.63;21.05;;;0.50;99.90;;;;;;5065577;28;20497;-74
2021/01/09 08:05:37;;;;;;;28.90;21.02;;;0.50;99.90;;;;;;5064418;28;20126;-75
2021/01/09 08:08:04;;;;;;;29.20;21.13;;;0.60;99.90;;;;;;5063763;28;20088;-74
2021/01/09 08:10:33;;;;;;;36.88;24.95;;;0.50;99.90;;;;;;5064709;28;20636;-74
2021/01/09 08:13:04;;;;;;;31.15;24.52;;;0.50;99.90;;;;;;5046841;28;20072;-73
2021/01/09 08:15:33;;;;;;;31.75;21.63;;;0.50;99.90;;;;;;5057025;28;20044;-75
2021/01/09 08:18:02;;;;;;;38.95;23.13;;;0.50;99.90;;;;;;5032000;28;20041;-74
2021/01/09 08:20:29;;;;;;;34.97;23.83;;;0.30;99.90;;;;;;5075108;28;20147;-76
2021/01/09 08:22:58;;;;;;;32.88;23.33;;;0.30;99.90;;;;;;5061759;28;20044;-76
2021/01/09 08:25:26;;;;;;;32.60;24.15;;;0.40;99.90;;;;;;5059303;28;20393;-73
2021/01/09 08:28:03;;;;;;;34.65;24.70;;;0.40;99.90;;;;;;5056391;28;20131;-74
2021/01/09 08:30:38;;;;;;;39.17;25.25;;;0.50;99.90;;;;;;5078359;28;20153;-74
2021/01/09 08:33:10;;;;;;;40.75;23.70;;;0.50;99.90;;;;;;5045950;28;20059;-74
2021/01/09 08:35:39;;;;;;;38.65;24.13;;;0.50;99.90;;;;;;5059008;28;20053;-75
2021/01/09 08:38:06;;;;;;;38.10;24.88;;;0.50;99.90;;;;;;5063250;28;20110;-75
2021/01/09 08:40:33;;;;;;;40.30;24.27;;;0.50;99.90;;;;;;5041432;28;20055;-75
2021/01/09 08:43:07;;;;;;;67.53;28.20;;;0.60;99.90;;;;;;5060876;28;20056;-76
2021/01/09 08:45:39;;;;;;;45.65;25.55;;;0.60;99.90;;;;;;5046777;28;20135;-75
2021/01/09 08:48:09;;;;;;;43.47;24.70;;;0.60;99.90;;;;;;5063092;28;20057;-74
2021/01/09 08:50:42;;;;;;;42.85;24.52;;;0.60;99.90;;;;;;5050333;28;20059;-73
2021/01/09 08:53:15;;;;;;;42.55;25.15;;;0.60;99.90;;;;;;5042355;28;20041;-75
2021/01/09 08:55:42;;;;;;;33.20;22.73;;;0.60;99.90;;;;;;5047841;28;20041;-76
2021/01/09 08:58:11;;;;;;;36.20;24.15;;;0.70;99.90;;;;;;5057651;28;20055;-76
2021/01/09 09:00:38;;;;;;;40.40;26.30;;;0.80;99.90;;;;;;5082976;28;20079;-75
2021/01/09 09:03:08;;;;;;;46.33;27.35;;;0.90;99.90;;;;;;5088975;28;20404;-73
2021/01/09 09:05:37;;;;;;;39.05;25.35;;;0.90;99.90;;;;;;5086159;28;20455;-76
2021/01/09 09:08:06;;;;;;;40.83;25.42;;;0.90;99.90;;;;;;5086609;28;20526;-74
2021/01/09 09:10:34;;;;;;;38.70;24.55;;;0.90;99.90;;;;;;5086485;28;20119;-74
2021/01/09 09:13:30;;;;;;;38.05;23.58;;;0.90;99.90;;;;;;5051073;28;20076;-75
2021/01/09 09:15:57;;;;;;;37.92;26.85;;;0.90;99.90;;;;;;5050918;28;20055;-75
2021/01/09 09:18:33;;;;;;;39.38;26.13;;;1.00;99.90;;;;;;5065210;28;20052;-74
2021/01/09 09:20:59;;;;;;;39.33;24.65;;;1.00;99.90;;;;;;5059837;28;20061;-73
2021/01/09 09:23:26;;;;;;;38.03;25.58;;;1.10;99.90;;;;;;5052949;28;20072;-74
2021/01/09 09:26:10;;;;;;;40.35;27.48;;;1.20;99.90;;;;;;5048671;28;20588;-75
2021/01/09 09:28:53;;;;;;;37.25;26.58;;;1.20;99.90;;;;;;5074210;28;20066;-74
2021/01/09 09:31:32;;;;;;;37.70;26.17;;;1.30;99.90;;;;;;5045176;28;20051;-73
2021/01/09 09:34:04;;;;;;;41.20;27.02;;;1.20;99.90;;;;;;5046300;28;20144;-74
2021/01/09 09:36:36;;;;;;;41.20;28.55;;;1.20;99.90;;;;;;5047327;28;20119;-74
2021/01/09 09:39:22;;;;;;;42.38;28.15;;;1.20;99.90;;;;;;5068115;28;20140;-74
2021/01/09 09:41:55;;;;;;;;;;;1.20;99.90;;;;;;5066128;28;20052;-73
2021/01/09 09:44:36;;;;;;;34.72;24.25;;;1.30;99.90;;;;;;5065295;28;19930;-74
2021/01/09 09:47:04;;;;;;;35.63;24.67;;;1.30;99.90;;;;;;5065891;28;20059;-73
2021/01/09 09:49:31;;;;;;;41.33;26.00;;;1.20;99.90;;;;;;5048730;28;20140;-74
2021/01/09 09:51:58;;;;;;;37.83;25.85;;;1.30;99.90;;;;;;5065358;28;20101;-75
2021/01/09 09:54:32;;;;;;;39.10;26.42;;;1.30;99.90;;;;;;5065904;28;20131;-74
2021/01/09 09:56:59;;;;;;;39.53;28.10;;;1.40;99.90;;;;;;5048811;28;20298;-73
2021/01/09 09:59:28;;;;;;;35.97;25.33;;;1.50;99.90;;;;;;5048305;28;20653;-74
2021/01/09 10:01:59;;;;;;;37.50;25.05;;;1.40;99.90;;;;;;5048659;28;20143;-74
2021/01/09 10:04:28;;;;;;;39.92;26.90;;;1.30;99.90;;;;;;5049138;28;20051;-74
2021/01/09 10:06:55;;;;;;;37.25;25.80;;;1.30;99.90;;;;;;5064631;28;20051;-74
2021/01/09 10:09:23;;;;;;;35.70;26.80;;;1.30;99.90;;;;;;5065303;28;20060;-75
2021/01/09 10:11:51;;;;;;;41.65;26.58;;;1.30;99.90;;;;;;5066258;28;20059;-74
2021/01/09 10:14:21;;;;;;;42.33;26.33;;;1.40;99.90;;;;;;5056281;28;20041;-74
2021/01/09 10:16:48;;;;;;;37.03;25.25;;;1.60;99.90;;;;;;5054529;28;20495;-74
2021/01/09 10:19:16;;;;;;;37.97;25.98;;;1.60;99.90;;;;;;5058663;28;20052;-75
2021/01/09 10:21:43;;;;;;;41.63;28.65;;;1.60;99.90;;;;;;5064800;28;20137;-74
2021/01/09 10:24:11;;;;;;;36.95;25.95;;;1.60;99.90;;;;;;5047845;28;20071;-74
2021/01/09 10:26:38;;;;;;;37.08;27.17;;;1.60;99.90;;;;;;5047469;28;20064;-75
2021/01/09 10:29:05;;;;;;;33.45;24.10;;;1.60;99.90;;;;;;5039679;28;20048;-74
2021/01/09 10:43:36;;;;;;;37.05;29.48;;;1.40;99.90;;;;;;5097307;27;20894;-74
2021/01/09 10:46:02;;;;;;;39.50;29.23;;;1.90;99.90;;;;;;5060216;28;20056;-75
2021/01/09 10:48:30;;;;;;;33.28;27.92;;;2.00;99.90;;;;;;5043857;28;20051;-74
2021/01/09 10:50:56;;;;;;;35.88;27.52;;;2.00;99.90;;;;;;5061158;28;20400;-74
2021/01/09 10:53:23;;;;;;;31.58;25.95;;;2.00;99.90;;;;;;5061031;28;20048;-75
2021/01/09 10:55:50;;;;;;;33.60;26.52;;;1.80;99.90;;;;;;5061178;28;20048;-75
2021/01/09 10:58:16;;;;;;;32.50;25.25;;;1.70;99.90;;;;;;5076477;28;20045;-75
2021/01/09 11:00:42;;;;;;;33.85;25.50;;;1.70;99.90;;;;;;5042620;28;20062;-74
2021/01/09 11:03:09;;;;;;;31.30;25.30;;;1.70;99.90;;;;;;5060038;28;20529;-75
2021/01/09 11:05:40;;;;;;;31.63;23.73;;;1.70;99.90;;;;;;5060031;28;20106;-74
2021/01/09 11:08:06;;;;;;;32.00;23.10;;;1.70;99.90;;;;;;5077653;28;20044;-75
2021/01/09 11:10:33;;;;;;;30.88;25.35;;;1.70;99.90;;;;;;5041945;28;20136;-75
2021/01/09 11:13:04;;;;;;;31.75;25.48;;;1.50;99.90;;;;;;5060650;28;20080;-75
2021/01/09 11:15:31;;;;;;;36.88;24.95;;;1.40;99.90;;;;;;5079067;28;20060;-74
2021/01/09 11:17:57;;;;;;;29.02;24.98;;;1.40;99.90;;;;;;5058863;28;20113;-75
2021/01/09 11:20:24;;;;;;;32.15;26.05;;;1.50;99.90;;;;;;5073185;28;20120;-75
2021/01/09 11:22:50;;;;;;;33.13;23.80;;;1.50;99.90;;;;;;5078585;28;20105;-74
2021/01/09 11:25:17;;;;;;;28.08;22.88;;;1.50;99.90;;;;;;5078084;28;20052;-75
2021/01/09 11:27:43;;;;;;;30.48;23.25;;;1.50;99.90;;;;;;5059132;28;20048;-75
2021/01/09 11:30:10;;;;;;;31.33;23.20;;;1.70;99.90;;;;;;5059897;28;20082;-75
2021/01/09 11:32:37;;;;;;;32.58;24.00;;;1.80;99.90;;;;;;5074235;28;20056;-74
2021/01/09 11:35:04;;;;;;;33.08;24.80;;;1.90;99.90;;;;;;5059620;28;20478;-76
2021/01/09 11:37:30;;;;;;;29.67;23.35;;;2.00;99.90;;;;;;5060617;28;20047;-76
2021/01/09 11:39:56;;;;;;;28.52;23.83;;;1.80;99.90;;;;;;5074255;28;20094;-76
2021/01/09 11:42:23;;;;;;;36.72;26.52;;;1.80;99.90;;;;;;5073814;28;20476;-75
2021/01/09 11:44:50;;;;;;;38.75;27.70;;;1.80;99.90;;;;;;5029835;28;20048;-75
2021/01/09 11:47:16;;;;;;;39.38;29.02;;;2.00;99.90;;;;;;5063494;28;20206;-76
2021/01/09 11:49:43;;;;;;;33.97;27.17;;;2.10;99.90;;;;;;5029523;28;20109;-75
2021/01/09 11:52:09;;;;;;;32.40;25.77;;;2.20;99.90;;;;;;5046417;28;20677;-75
2021/01/09 11:54:36;;;;;;;32.38;26.45;;;2.30;99.90;;;;;;5062848;28;20105;-75
2021/01/09 11:57:03;;;;;;;31.42;25.90;;;2.40;99.90;;;;;;5026246;28;20063;-75
2021/01/09 11:59:29;;;;;;;30.27;25.73;;;2.40;99.90;;;;;;5042327;28;20052;-75
2021/01/09 12:01:56;;;;;;;29.67;26.08;;;2.30;99.90;;;;;;5010334;28;20049;-75
2021/01/09 12:04:22;;;;;;;30.23;26.52;;;2.20;99.90;;;;;;5062863;28;20052;-75
2021/01/09 12:06:49;;;;;;;28.63;25.67;;;2.20;99.90;;;;;;5064752;28;20056;-76
2021/01/09 12:09:16;;;;;;;35.35;26.65;;;1.90;99.90;;;;;;5046103;28;20056;-74
2021/01/09 12:11:42;;;;;;;37.40;27.75;;;1.90;99.90;;;;;;5064784;28;20733;-75
2021/01/09 12:14:13;;;;;;;36.38;28.20;;;1.90;99.90;;;;;;5046563;28;20418;-75
2021/01/09 12:16:39;;;;;;;35.08;27.42;;;1.90;99.90;;;;;;5048689;28;20450;-73
2021/01/09 12:19:06;;;;;;;40.10;29.20;;;1.90;99.90;;;;;;5039604;28;20061;-73
2021/01/09 12:21:32;;;;;;;38.70;29.90;;;1.90;99.90;;;;;;5032382;28;20044;-73
2021/01/09 12:24:01;;;;;;;40.53;30.35;;;1.90;99.90;;;;;;5065063;28;20577;-76
2021/01/09 12:26:27;;;;;;;38.58;27.70;;;1.70;99.90;;;;;;5030363;28;20053;-76
2021/01/09 12:28:54;;;;;;;45.60;31.63;;;1.60;99.90;;;;;;5032213;28;20102;-76
2021/01/09 12:31:34;;;;;;;39.95;31.42;;;1.50;99.90;;;;;;5042430;28;20057;-73
2021/01/09 12:34:17;;;;;;;48.22;32.53;;;1.50;99.90;;;;;;5040674;28;20140;-73
2021/01/09 12:36:48;;;;;;;48.00;34.50;;;1.40;99.90;;;;;;5040636;28;20045;-74
2021/01/09 12:39:15;;;;;;;52.63;32.17;;;1.40;99.90;;;;;;5064120;28;20037;-73
2021/01/09 12:41:42;;;;;;;50.10;33.58;;;1.30;99.90;;;;;;5065455;28;20056;-74
2021/01/09 12:44:10;;;;;;;45.45;32.38;;;1.30;99.90;;;;;;5050376;28;20514;-75
2021/01/09 12:46:44;;;;;;;44.92;31.80;;;1.30;99.90;;;;;;5055798;28;20044;-74
2021/01/09 12:49:15;;;;;;;51.65;35.38;;;1.30;99.90;;;;;;5044205;28;20064;-74
2021/01/09 12:51:42;;;;;;;44.88;32.72;;;1.20;99.90;;;;;;5063862;28;20059;-74
2021/01/09 12:54:10;;;;;;;44.17;32.35;;;1.20;99.90;;;;;;5048173;28;20041;-74